sensor_id;sensor_type;location;lat;lon;timestamp;P1;durP1;ratioP1;P2;durP2;ratioP2
55031;SDS011;40928;51.076;7.950;2022-10-16T00:00:34;3.92;;;1.30;;
55031;SDS011;40928;51.076;7.950;2022-10-16T00:03:02;2.35;;;1.10;;
55031;SDS011;40928;51.076;7.950;2022-10-16T00:05:29;3.70;;;1.42;;
55031;SDS011;40928;51.076;7.950;2022-10-16T00:07:54;1.55;;;1.00;;
55031;SDS011;40928;51.076;7.950;2022-10-16T00:10:20;2.65;;;1.10;;
55031;SDS011;40928;51.076;7.950;2022-10-16T00:12:46;8.20;;;1.17;;
55031;SDS011;40928;51.076;7.950;2022-10-16T00:15:11;2.10;;;1.40;;
55031;SDS011;40928;51.076;7.950;2022-10-16T00:17:37;4.00;;;2.08;;
55031;SDS011;40928;51.076;7.950;2022-10-16T00:20:03;2.70;;;2.03;;
55031;SDS011;40928;51.076;7.950;2022-10-16T00:22:29;4.43;;;1.70;;
55031;SDS011;40928;51.076;7.950;2022-10-16T00:24:54;6.60;;;2.50;;
55031;SDS011;40928;51.076;7.950;2022-10-16T00:27:20;6.68;;;2.58;;
55031;SDS011;40928;51.076;7.950;2022-10-16T00:29:49;5.78;;;2.22;;
55031;SDS011;40928;51.076;7.950;2022-10-16T00:32:16;7.15;;;2.35;;
55031;SDS011;40928;51.076;7.950;2022-10-16T00:34:42;5.55;;;2.90;;
55031;SDS011;40928;51.076;7.950;2022-10-16T00:37:08;6.63;;;2.83;;
55031;SDS011;40928;51.076;7.950;2022-10-16T00:39:33;3.78;;;2.40;;
55031;SDS011;40928;51.076;7.950;2022-10-16T00:41:59;9.43;;;3.67;;
55031;SDS011;40928;51.076;7.950;2022-10-16T00:47:18;6.20;;;3.78;;
55031;SDS011;40928;51.076;7.950;2022-10-16T00:49:50;6.65;;;4.25;;
55031;SDS011;40928;51.076;7.950;2022-10-16T00:52:19;5.93;;;4.15;;
55031;SDS011;40928;51.076;7.950;2022-10-16T00:54:46;9.90;;;5.20;;
55031;SDS011;40928;51.076;7.950;2022-10-16T00:57:12;7.20;;;4.32;;
55031;SDS011;40928;51.076;7.950;2022-10-16T00:59:39;7.57;;;4.90;;
55031;SDS011;40928;51.076;7.950;2022-10-16T01:02:07;6.30;;;3.53;;
55031;SDS011;40928;51.076;7.950;2022-10-16T01:04:36;4.35;;;3.08;;
55031;SDS011;40928;51.076;7.950;2022-10-16T01:10:25;7.80;;;4.07;;
55031;SDS011;40928;51.076;7.950;2022-10-16T01:15:26;5.00;;;3.00;;
55031;SDS011;40928;51.076;7.950;2022-10-16T01:20:59;4.07;;;2.88;;
55031;SDS011;40928;51.076;7.950;2022-10-16T01:29:16;4.03;;;3.58;;
55031;SDS011;40928;51.076;7.950;2022-10-16T01:31:47;3.97;;;2.65;;
55031;SDS011;40928;51.076;7.950;2022-10-16T01:34:51;4.75;;;2.92;;
55031;SDS011;40928;51.076;7.950;2022-10-16T01:37:24;4.65;;;2.38;;
55031;SDS011;40928;51.076;7.950;2022-10-16T01:39:58;4.18;;;2.92;;
55031;SDS011;40928;51.076;7.950;2022-10-16T01:42:31;3.85;;;2.53;;
55031;SDS011;40928;51.076;7.950;2022-10-16T01:45:02;3.42;;;2.80;;
55031;SDS011;40928;51.076;7.950;2022-10-16T01:47:31;3.15;;;2.65;;
55031;SDS011;40928;51.076;7.950;2022-10-16T01:49:58;6.60;;;2.20;;
55031;SDS011;40928;51.076;7.950;2022-10-16T01:52:26;5.55;;;2.28;;
55031;SDS011;40928;51.076;7.950;2022-10-16T01:54:54;2.67;;;2.40;;
55031;SDS011;40928;51.076;7.950;2022-10-16T01:57:23;3.33;;;2.42;;
55031;SDS011;40928;51.076;7.950;2022-10-16T01:59:51;2.50;;;2.20;;
55031;SDS011;40928;51.076;7.950;2022-10-16T02:02:21;2.85;;;2.08;;
55031;SDS011;40928;51.076;7.950;2022-10-16T02:04:58;4.80;;;2.00;;
55031;SDS011;40928;51.076;7.950;2022-10-16T02:07:29;6.47;;;1.83;;
55031;SDS011;40928;51.076;7.950;2022-10-16T02:09:54;2.60;;;1.58;;
55031;SDS011;40928;51.076;7.950;2022-10-16T02:12:25;4.93;;;1.98;;
55031;SDS011;40928;51.076;7.950;2022-10-16T02:14:53;4.20;;;1.90;;
55031;SDS011;40928;51.076;7.950;2022-10-16T02:17:19;4.65;;;1.75;;
55031;SDS011;40928;51.076;7.950;2022-10-16T02:19:46;2.72;;;1.60;;
55031;SDS011;40928;51.076;7.950;2022-10-16T02:28:27;3.05;;;1.90;;
55031;SDS011;40928;51.076;7.950;2022-10-16T02:31:02;5.45;;;2.60;;
55031;SDS011;40928;51.076;7.950;2022-10-16T02:33:32;3.78;;;2.25;;
55031;SDS011;40928;51.076;7.950;2022-10-16T02:36:01;5.10;;;2.85;;
55031;SDS011;40928;51.076;7.950;2022-10-16T02:38:27;6.63;;;2.50;;
55031;SDS011;40928;51.076;7.950;2022-10-16T02:40:55;5.55;;;2.47;;
55031;SDS011;40928;51.076;7.950;2022-10-16T02:43:21;5.32;;;2.53;;
55031;SDS011;40928;51.076;7.950;2022-10-16T02:45:47;3.45;;;2.85;;
55031;SDS011;40928;51.076;7.950;2022-10-16T02:48:12;4.72;;;3.40;;
55031;SDS011;40928;51.076;7.950;2022-10-16T02:50:38;5.72;;;3.53;;
55031;SDS011;40928;51.076;7.950;2022-10-16T02:53:03;3.38;;;3.00;;
55031;SDS011;40928;51.076;7.950;2022-10-16T02:55:29;4.38;;;3.42;;
55031;SDS011;40928;51.076;7.950;2022-10-16T02:57:54;5.07;;;3.28;;
55031;SDS011;40928;51.076;7.950;2022-10-16T03:00:20;9.80;;;4.45;;
55031;SDS011;40928;51.076;7.950;2022-10-16T03:02:46;7.28;;;3.80;;
55031;SDS011;40928;51.076;7.950;2022-10-16T03:05:12;5.20;;;3.53;;
55031;SDS011;40928;51.076;7.950;2022-10-16T03:07:38;5.75;;;3.78;;
55031;SDS011;40928;51.076;7.950;2022-10-16T03:10:04;5.13;;;3.10;;
55031;SDS011;40928;51.076;7.950;2022-10-16T03:12:30;5.30;;;3.53;;
55031;SDS011;40928;51.076;7.950;2022-10-16T03:14:56;3.58;;;2.75;;
55031;SDS011;40928;51.076;7.950;2022-10-16T03:17:22;3.42;;;3.00;;
55031;SDS011;40928;51.076;7.950;2022-10-16T03:19:48;6.50;;;3.20;;
55031;SDS011;40928;51.076;7.950;2022-10-16T03:22:14;4.32;;;3.60;;
55031;SDS011;40928;51.076;7.950;2022-10-16T03:24:39;6.25;;;4.00;;
55031;SDS011;40928;51.076;7.950;2022-10-16T03:27:05;5.60;;;3.67;;
55031;SDS011;40928;51.076;7.950;2022-10-16T03:29:31;4.57;;;3.38;;
55031;SDS011;40928;51.076;7.950;2022-10-16T03:31:58;3.90;;;3.50;;
55031;SDS011;40928;51.076;7.950;2022-10-16T03:34:23;5.93;;;3.88;;
55031;SDS011;40928;51.076;7.950;2022-10-16T03:36:49;7.40;;;3.80;;
55031;SDS011;40928;51.076;7.950;2022-10-16T03:39:15;3.85;;;3.20;;
55031;SDS011;40928;51.076;7.950;2022-10-16T03:41:40;3.58;;;2.83;;
55031;SDS011;40928;51.076;7.950;2022-10-16T03:44:06;3.90;;;3.20;;
55031;SDS011;40928;51.076;7.950;2022-10-16T03:46:31;7.22;;;4.35;;
55031;SDS011;40928;51.076;7.950;2022-10-16T03:48:57;3.53;;;3.22;;
55031;SDS011;40928;51.076;7.950;2022-10-16T03:51:23;8.32;;;2.97;;
55031;SDS011;40928;51.076;7.950;2022-10-16T03:53:48;5.40;;;3.28;;
55031;SDS011;40928;51.076;7.950;2022-10-16T03:56:14;3.05;;;2.53;;
55031;SDS011;40928;51.076;7.950;2022-10-16T03:58:39;4.72;;;2.97;;
55031;SDS011;40928;51.076;7.950;2022-10-16T04:01:05;4.95;;;2.90;;
55031;SDS011;40928;51.076;7.950;2022-10-16T04:03:30;2.67;;;2.38;;
55031;SDS011;40928;51.076;7.950;2022-10-16T04:05:56;3.15;;;2.60;;
55031;SDS011;40928;51.076;7.950;2022-10-16T04:08:22;5.00;;;2.42;;
55031;SDS011;40928;51.076;7.950;2022-10-16T04:10:47;3.97;;;2.80;;
55031;SDS011;40928;51.076;7.950;2022-10-16T04:13:13;3.22;;;2.70;;
55031;SDS011;40928;51.076;7.950;2022-10-16T04:15:39;4.68;;;2.70;;
55031;SDS011;40928;51.076;7.950;2022-10-16T04:18:05;3.15;;;2.15;;
55031;SDS011;40928;51.076;7.950;2022-10-16T04:20:31;2.67;;;2.30;;
55031;SDS011;40928;51.076;7.950;2022-10-16T04:22:57;6.88;;;2.67;;
55031;SDS011;40928;51.076;7.950;2022-10-16T04:25:22;4.82;;;2.38;;
55031;SDS011;40928;51.076;7.950;2022-10-16T04:27:48;3.90;;;1.95;;
55031;SDS011;40928;51.076;7.950;2022-10-16T04:30:13;4.53;;;2.30;;
55031;SDS011;40928;51.076;7.950;2022-10-16T04:32:39;3.53;;;2.00;;
55031;SDS011;40928;51.076;7.950;2022-10-16T04:35:06;1.95;;;1.55;;
55031;SDS011;40928;51.076;7.950;2022-10-16T04:37:31;3.85;;;2.00;;
55031;SDS011;40928;51.076;7.950;2022-10-16T04:39:57;6.90;;;1.73;;
55031;SDS011;40928;51.076;7.950;2022-10-16T04:42:23;3.83;;;1.70;;
55031;SDS011;40928;51.076;7.950;2022-10-16T04:44:48;1.90;;;1.30;;
55031;SDS011;40928;51.076;7.950;2022-10-16T04:47:14;3.22;;;1.60;;
55031;SDS011;40928;51.076;7.950;2022-10-16T04:49:39;4.20;;;1.83;;
55031;SDS011;40928;51.076;7.950;2022-10-16T04:52:05;2.67;;;1.45;;
55031;SDS011;40928;51.076;7.950;2022-10-16T04:54:30;1.38;;;1.15;;
55031;SDS011;40928;51.076;7.950;2022-10-16T04:56:56;1.95;;;1.30;;
55031;SDS011;40928;51.076;7.950;2022-10-16T04:59:22;7.03;;;1.67;;
55031;SDS011;40928;51.076;7.950;2022-10-16T05:01:47;2.55;;;1.30;;
55031;SDS011;40928;51.076;7.950;2022-10-16T05:04:13;7.57;;;1.55;;
55031;SDS011;40928;51.076;7.950;2022-10-16T05:06:40;1.70;;;1.15;;
55031;SDS011;40928;51.076;7.950;2022-10-16T05:09:06;1.95;;;1.38;;
55031;SDS011;40928;51.076;7.950;2022-10-16T05:11:32;1.55;;;1.20;;
55031;SDS011;40928;51.076;7.950;2022-10-16T05:13:57;2.05;;;1.30;;
55031;SDS011;40928;51.076;7.950;2022-10-16T05:16:23;3.03;;;1.40;;
55031;SDS011;40928;51.076;7.950;2022-10-16T05:18:49;1.40;;;1.20;;
55031;SDS011;40928;51.076;7.950;2022-10-16T05:21:17;1.40;;;1.30;;
55031;SDS011;40928;51.076;7.950;2022-10-16T05:23:43;7.13;;;1.23;;
55031;SDS011;40928;51.076;7.950;2022-10-16T05:26:08;2.65;;;1.15;;
55031;SDS011;40928;51.076;7.950;2022-10-16T05:28:34;3.05;;;1.50;;
55031;SDS011;40928;51.076;7.950;2022-10-16T05:31:03;2.85;;;1.30;;
55031;SDS011;40928;51.076;7.950;2022-10-16T05:33:30;3.08;;;1.40;;
55031;SDS011;40928;51.076;7.950;2022-10-16T05:35:55;2.85;;;1.52;;
55031;SDS011;40928;51.076;7.950;2022-10-16T05:38:21;1.67;;;1.58;;
55031;SDS011;40928;51.076;7.950;2022-10-16T05:40:53;2.03;;;1.70;;
55031;SDS011;40928;51.076;7.950;2022-10-16T05:43:18;8.65;;;1.52;;
55031;SDS011;40928;51.076;7.950;2022-10-16T05:45:52;4.13;;;1.90;;
55031;SDS011;40928;51.076;7.950;2022-10-16T05:48:27;1.63;;;1.52;;
55031;SDS011;40928;51.076;7.950;2022-10-16T05:50:56;2.28;;;1.80;;
55031;SDS011;40928;51.076;7.950;2022-10-16T05:53:27;7.03;;;1.83;;
55031;SDS011;40928;51.076;7.950;2022-10-16T05:55:54;1.75;;;1.63;;
55031;SDS011;40928;51.076;7.950;2022-10-16T05:58:20;9.38;;;4.03;;
55031;SDS011;40928;51.076;7.950;2022-10-16T06:00:55;5.72;;;2.45;;
55031;SDS011;40928;51.076;7.950;2022-10-16T06:03:21;3.92;;;2.08;;
55031;SDS011;40928;51.076;7.950;2022-10-16T06:05:47;4.55;;;2.47;;
55031;SDS011;40928;51.076;7.950;2022-10-16T06:08:12;4.00;;;2.13;;
55031;SDS011;40928;51.076;7.950;2022-10-16T06:10:38;6.60;;;2.30;;
55031;SDS011;40928;51.076;7.950;2022-10-16T06:13:03;2.97;;;2.30;;
55031;SDS011;40928;51.076;7.950;2022-10-16T06:15:29;3.97;;;2.10;;
55031;SDS011;40928;51.076;7.950;2022-10-16T06:17:55;8.57;;;2.20;;
55031;SDS011;40928;51.076;7.950;2022-10-16T06:20:20;6.43;;;1.98;;
55031;SDS011;40928;51.076;7.950;2022-10-16T06:22:46;3.20;;;1.92;;
55031;SDS011;40928;51.076;7.950;2022-10-16T06:25:11;1.88;;;1.67;;
55031;SDS011;40928;51.076;7.950;2022-10-16T06:27:39;3.90;;;2.08;;
55031;SDS011;40928;51.076;7.950;2022-10-16T06:30:06;1.92;;;1.40;;
55031;SDS011;40928;51.076;7.950;2022-10-16T06:32:32;4.53;;;1.73;;
55031;SDS011;40928;51.076;7.950;2022-10-16T06:34:57;3.65;;;1.92;;
55031;SDS011;40928;51.076;7.950;2022-10-16T06:37:23;2.83;;;1.60;;
55031;SDS011;40928;51.076;7.950;2022-10-16T06:39:49;1.70;;;1.35;;
55031;SDS011;40928;51.076;7.950;2022-10-16T06:42:17;1.73;;;1.38;;
55031;SDS011;40928;51.076;7.950;2022-10-16T06:44:43;3.95;;;1.75;;
55031;SDS011;40928;51.076;7.950;2022-10-16T06:47:09;6.30;;;1.90;;
55031;SDS011;40928;51.076;7.950;2022-10-16T06:49:35;2.20;;;2.00;;
55031;SDS011;40928;51.076;7.950;2022-10-16T06:52:00;1.63;;;1.40;;
55031;SDS011;40928;51.076;7.950;2022-10-16T06:54:27;1.45;;;1.33;;
55031;SDS011;40928;51.076;7.950;2022-10-16T06:56:52;7.78;;;1.23;;
55031;SDS011;40928;51.076;7.950;2022-10-16T06:59:20;3.15;;;1.60;;
55031;SDS011;40928;51.076;7.950;2022-10-16T07:01:46;1.30;;;1.20;;
55031;SDS011;40928;51.076;7.950;2022-10-16T07:04:12;2.90;;;1.23;;
55031;SDS011;40928;51.076;7.950;2022-10-16T07:06:38;2.30;;;1.50;;
55031;SDS011;40928;51.076;7.950;2022-10-16T07:09:04;1.85;;;1.50;;
55031;SDS011;40928;51.076;7.950;2022-10-16T07:11:31;2.28;;;1.08;;
55031;SDS011;40928;51.076;7.950;2022-10-16T07:13:57;1.70;;;1.20;;
55031;SDS011;40928;51.076;7.950;2022-10-16T07:16:24;4.47;;;1.30;;
55031;SDS011;40928;51.076;7.950;2022-10-16T07:18:54;3.15;;;1.05;;
55031;SDS011;40928;51.076;7.950;2022-10-16T07:21:26;1.60;;;1.40;;
55031;SDS011;40928;51.076;7.950;2022-10-16T07:23:57;2.67;;;1.38;;
55031;SDS011;40928;51.076;7.950;2022-10-16T07:26:24;1.65;;;1.20;;
55031;SDS011;40928;51.076;7.950;2022-10-16T07:28:51;1.25;;;0.90;;
55031;SDS011;40928;51.076;7.950;2022-10-16T07:31:18;1.85;;;1.42;;
55031;SDS011;40928;51.076;7.950;2022-10-16T07:33:44;5.13;;;1.33;;
55031;SDS011;40928;51.076;7.950;2022-10-16T07:36:13;5.05;;;2.10;;
55031;SDS011;40928;51.076;7.950;2022-10-16T07:38:39;1.70;;;1.13;;
55031;SDS011;40928;51.076;7.950;2022-10-16T07:41:05;6.28;;;1.20;;
55031;SDS011;40928;51.076;7.950;2022-10-16T07:43:32;1.92;;;1.52;;
55031;SDS011;40928;51.076;7.950;2022-10-16T07:45:58;2.35;;;1.08;;
55031;SDS011;40928;51.076;7.950;2022-10-16T07:48:26;4.82;;;1.33;;
55031;SDS011;40928;51.076;7.950;2022-10-16T07:50:56;2.17;;;1.05;;
55031;SDS011;40928;51.076;7.950;2022-10-16T07:53:25;4.68;;;1.85;;
55031;SDS011;40928;51.076;7.950;2022-10-16T07:55:51;2.13;;;1.05;;
55031;SDS011;40928;51.076;7.950;2022-10-16T07:58:16;2.13;;;1.50;;
55031;SDS011;40928;51.076;7.950;2022-10-16T08:00:42;2.42;;;0.80;;
55031;SDS011;40928;51.076;7.950;2022-10-16T08:03:08;1.23;;;0.80;;
55031;SDS011;40928;51.076;7.950;2022-10-16T08:05:33;1.00;;;0.90;;
55031;SDS011;40928;51.076;7.950;2022-10-16T08:08:00;2.65;;;0.80;;
55031;SDS011;40928;51.076;7.950;2022-10-16T08:10:27;2.83;;;0.82;;
55031;SDS011;40928;51.076;7.950;2022-10-16T08:12:53;0.95;;;0.65;;
55031;SDS011;40928;51.076;7.950;2022-10-16T08:15:19;1.27;;;0.70;;
55031;SDS011;40928;51.076;7.950;2022-10-16T08:17:59;1.55;;;0.60;;
55031;SDS011;40928;51.076;7.950;2022-10-16T08:20:29;1.48;;;0.63;;
55031;SDS011;40928;51.076;7.950;2022-10-16T08:22:55;0.88;;;0.55;;
55031;SDS011;40928;51.076;7.950;2022-10-16T08:25:21;2.70;;;0.85;;
55031;SDS011;40928;51.076;7.950;2022-10-16T08:27:48;1.77;;;0.88;;
55031;SDS011;40928;51.076;7.950;2022-10-16T08:30:14;1.95;;;0.50;;
55031;SDS011;40928;51.076;7.950;2022-10-16T08:32:43;1.00;;;0.70;;
55031;SDS011;40928;51.076;7.950;2022-10-16T08:35:10;0.60;;;0.57;;
55031;SDS011;40928;51.076;7.950;2022-10-16T08:37:36;0.65;;;0.52;;
55031;SDS011;40928;51.076;7.950;2022-10-16T08:40:03;2.20;;;0.57;;
55031;SDS011;40928;51.076;7.950;2022-10-16T08:50:28;3.10;;;0.40;;
55031;SDS011;40928;51.076;7.950;2022-10-16T08:52:56;1.33;;;0.50;;
55031;SDS011;40928;51.076;7.950;2022-10-16T08:55:30;2.30;;;0.60;;
55031;SDS011;40928;51.076;7.950;2022-10-16T08:58:07;1.58;;;0.40;;
55031;SDS011;40928;51.076;7.950;2022-10-16T09:00:37;0.40;;;0.30;;
55031;SDS011;40928;51.076;7.950;2022-10-16T09:03:10;3.08;;;0.40;;
55031;SDS011;40928;51.076;7.950;2022-10-16T09:11:29;1.40;;;0.50;;
55031;SDS011;40928;51.076;7.950;2022-10-16T09:17:13;0.30;;;0.30;;
55031;SDS011;40928;51.076;7.950;2022-10-16T09:19:46;1.30;;;0.32;;
55031;SDS011;40928;51.076;7.950;2022-10-16T09:22:28;0.77;;;0.40;;
55031;SDS011;40928;51.076;7.950;2022-10-16T09:24:59;0.55;;;0.30;;
55031;SDS011;40928;51.076;7.950;2022-10-16T09:27:26;3.47;;;0.40;;
55031;SDS011;40928;51.076;7.950;2022-10-16T09:29:52;4.88;;;0.40;;
55031;SDS011;40928;51.076;7.950;2022-10-16T09:32:18;4.47;;;0.57;;
55031;SDS011;40928;51.076;7.950;2022-10-16T09:34:47;2.70;;;0.40;;
55031;SDS011;40928;51.076;7.950;2022-10-16T09:37:19;0.88;;;0.20;;
55031;SDS011;40928;51.076;7.950;2022-10-16T09:39:50;3.45;;;0.57;;
55031;SDS011;40928;51.076;7.950;2022-10-16T09:42:20;0.68;;;0.40;;
55031;SDS011;40928;51.076;7.950;2022-10-16T09:44:50;1.58;;;0.20;;
55031;SDS011;40928;51.076;7.950;2022-10-16T09:47:19;0.75;;;0.20;;
55031;SDS011;40928;51.076;7.950;2022-10-16T09:50:19;2.03;;;0.30;;
55031;SDS011;40928;51.076;7.950;2022-10-16T09:53:02;1.40;;;0.20;;
55031;SDS011;40928;51.076;7.950;2022-10-16T09:55:33;3.03;;;0.35;;
55031;SDS011;40928;51.076;7.950;2022-10-16T09:57:59;2.10;;;0.28;;
55031;SDS011;40928;51.076;7.950;2022-10-16T10:00:24;1.25;;;0.20;;
55031;SDS011;40928;51.076;7.950;2022-10-16T10:02:50;2.88;;;0.40;;
55031;SDS011;40928;51.076;7.950;2022-10-16T10:05:35;0.60;;;0.30;;
55031;SDS011;40928;51.076;7.950;2022-10-16T10:08:04;3.45;;;0.52;;
55031;SDS011;40928;51.076;7.950;2022-10-16T10:10:37;4.90;;;0.40;;
55031;SDS011;40928;51.076;7.950;2022-10-16T10:16:01;2.23;;;0.30;;
55031;SDS011;40928;51.076;7.950;2022-10-16T10:18:27;4.15;;;0.50;;
55031;SDS011;40928;51.076;7.950;2022-10-16T10:20:59;1.77;;;0.40;;
55031;SDS011;40928;51.076;7.950;2022-10-16T10:23:26;0.35;;;0.28;;
55031;SDS011;40928;51.076;7.950;2022-10-16T10:31:31;2.47;;;0.30;;
55031;SDS011;40928;51.076;7.950;2022-10-16T10:34:14;2.35;;;0.60;;
55031;SDS011;40928;51.076;7.950;2022-10-16T10:37:14;6.05;;;1.25;;
55031;SDS011;40928;51.076;7.950;2022-10-16T10:42:47;3.90;;;0.40;;
55031;SDS011;40928;51.076;7.950;2022-10-16T10:45:43;1.13;;;0.30;;
55031;SDS011;40928;51.076;7.950;2022-10-16T10:51:39;0.60;;;0.30;;
55031;SDS011;40928;51.076;7.950;2022-10-16T10:54:09;2.72;;;0.30;;
55031;SDS011;40928;51.076;7.950;2022-10-16T11:10:46;3.03;;;0.28;;
55031;SDS011;40928;51.076;7.950;2022-10-16T11:13:17;1.90;;;0.20;;
55031;SDS011;40928;51.076;7.950;2022-10-16T11:15:51;1.15;;;0.20;;
55031;SDS011;40928;51.076;7.950;2022-10-16T11:18:23;4.60;;;0.30;;
55031;SDS011;40928;51.076;7.950;2022-10-16T11:20:57;2.00;;;0.10;;
55031;SDS011;40928;51.076;7.950;2022-10-16T11:23:31;0.28;;;0.10;;
55031;SDS011;40928;51.076;7.950;2022-10-16T11:26:04;0.82;;;0.30;;
55031;SDS011;40928;51.076;7.950;2022-10-16T11:28:39;0.40;;;0.10;;
55031;SDS011;40928;51.076;7.950;2022-10-16T11:31:16;2.00;;;0.20;;
55031;SDS011;40928;51.076;7.950;2022-10-16T11:33:49;1.77;;;0.60;;
55031;SDS011;40928;51.076;7.950;2022-10-16T11:50:17;1.38;;;0.40;;
55031;SDS011;40928;51.076;7.950;2022-10-16T11:52:53;1.33;;;0.30;;
55031;SDS011;40928;51.076;7.950;2022-10-16T11:55:39;0.30;;;0.10;;
55031;SDS011;40928;51.076;7.950;2022-10-16T11:58:07;2.85;;;0.25;;
55031;SDS011;40928;51.076;7.950;2022-10-16T12:00:46;4.63;;;0.45;;
55031;SDS011;40928;51.076;7.950;2022-10-16T12:03:34;1.45;;;0.52;;
55031;SDS011;40928;51.076;7.950;2022-10-16T12:08:45;1.77;;;0.25;;
55031;SDS011;40928;51.076;7.950;2022-10-16T12:13:49;2.90;;;0.32;;
55031;SDS011;40928;51.076;7.950;2022-10-16T12:18:42;3.13;;;0.50;;
55031;SDS011;40928;51.076;7.950;2022-10-16T12:21:10;0.45;;;0.10;;
55031;SDS011;40928;51.076;7.950;2022-10-16T12:23:52;3.88;;;0.32;;
55031;SDS011;40928;51.076;7.950;2022-10-16T12:26:26;4.13;;;0.20;;
55031;SDS011;40928;51.076;7.950;2022-10-16T12:28:54;0.40;;;0.20;;
55031;SDS011;40928;51.076;7.950;2022-10-16T12:31:21;2.60;;;0.35;;
55031;SDS011;40928;51.076;7.950;2022-10-16T12:33:58;0.47;;;0.20;;
55031;SDS011;40928;51.076;7.950;2022-10-16T12:36:27;0.20;;;0.10;;
55031;SDS011;40928;51.076;7.950;2022-10-16T12:38:58;0.30;;;0.20;;
55031;SDS011;40928;51.076;7.950;2022-10-16T12:43:55;3.22;;;0.13;;
55031;SDS011;40928;51.076;7.950;2022-10-16T12:46:23;1.77;;;0.20;;
55031;SDS011;40928;51.076;7.950;2022-10-16T12:51:38;3.60;;;0.20;;
55031;SDS011;40928;51.076;7.950;2022-10-16T12:54:11;0.88;;;0.10;;
55031;SDS011;40928;51.076;7.950;2022-10-16T13:05:34;0.70;;;0.10;;
55031;SDS011;40928;51.076;7.950;2022-10-16T13:13:29;0.20;;;0.10;;
55031;SDS011;40928;51.076;7.950;2022-10-16T13:24:09;5.68;;;0.20;;
55031;SDS011;40928;51.076;7.950;2022-10-16T13:29:13;1.02;;;0.20;;
55031;SDS011;40928;51.076;7.950;2022-10-16T13:31:39;2.47;;;0.20;;
55031;SDS011;40928;51.076;7.950;2022-10-16T13:34:05;0.63;;;0.10;;
55031;SDS011;40928;51.076;7.950;2022-10-16T13:36:58;2.10;;;0.20;;
55031;SDS011;40928;51.076;7.950;2022-10-16T13:44:41;2.10;;;0.17;;
55031;SDS011;40928;51.076;7.950;2022-10-16T13:47:16;0.52;;;0.10;;
55031;SDS011;40928;51.076;7.950;2022-10-16T13:49:43;1.35;;;0.10;;
55031;SDS011;40928;51.076;7.950;2022-10-16T13:52:17;0.50;;;0.10;;
55031;SDS011;40928;51.076;7.950;2022-10-16T13:54:44;0.28;;;0.10;;
55031;SDS011;40928;51.076;7.950;2022-10-16T13:57:12;0.95;;;0.10;;
55031;SDS011;40928;51.076;7.950;2022-10-16T13:59:39;1.27;;;0.20;;
55031;SDS011;40928;51.076;7.950;2022-10-16T14:02:25;0.52;;;0.52;;
55031;SDS011;40928;51.076;7.950;2022-10-16T14:04:53;2.28;;;0.20;;
55031;SDS011;40928;51.076;7.950;2022-10-16T14:07:24;1.17;;;0.50;;
55031;SDS011;40928;51.076;7.950;2022-10-16T14:09:52;0.20;;;0.10;;
55031;SDS011;40928;51.076;7.950;2022-10-16T14:12:20;0.52;;;0.15;;
55031;SDS011;40928;51.076;7.950;2022-10-16T14:14:51;0.75;;;0.20;;
55031;SDS011;40928;51.076;7.950;2022-10-16T14:17:22;3.25;;;0.20;;
55031;SDS011;40928;51.076;7.950;2022-10-16T14:19:54;1.30;;;0.30;;
55031;SDS011;40928;51.076;7.950;2022-10-16T14:22:29;1.25;;;0.32;;
55031;SDS011;40928;51.076;7.950;2022-10-16T14:30:25;2.25;;;0.25;;
55031;SDS011;40928;51.076;7.950;2022-10-16T14:35:32;3.10;;;0.30;;
55031;SDS011;40928;51.076;7.950;2022-10-16T14:38:03;1.10;;;0.20;;
55031;SDS011;40928;51.076;7.950;2022-10-16T14:40:34;1.55;;;0.20;;
55031;SDS011;40928;51.076;7.950;2022-10-16T14:43:02;1.00;;;0.30;;
55031;SDS011;40928;51.076;7.950;2022-10-16T14:45:30;4.13;;;0.75;;
55031;SDS011;40928;51.076;7.950;2022-10-16T14:47:59;1.00;;;0.38;;
55031;SDS011;40928;51.076;7.950;2022-10-16T14:50:27;1.50;;;0.32;;
55031;SDS011;40928;51.076;7.950;2022-10-16T14:52:53;0.77;;;0.30;;
55031;SDS011;40928;51.076;7.950;2022-10-16T14:55:19;0.63;;;0.50;;
55031;SDS011;40928;51.076;7.950;2022-10-16T14:57:45;0.32;;;0.15;;
55031;SDS011;40928;51.076;7.950;2022-10-16T15:00:17;0.75;;;0.20;;
55031;SDS011;40928;51.076;7.950;2022-10-16T15:02:45;0.60;;;0.30;;
55031;SDS011;40928;51.076;7.950;2022-10-16T15:05:22;8.82;;;0.43;;
55031;SDS011;40928;51.076;7.950;2022-10-16T15:07:51;5.43;;;0.35;;
55031;SDS011;40928;51.076;7.950;2022-10-16T15:10:18;0.70;;;0.17;;
55031;SDS011;40928;51.076;7.950;2022-10-16T15:12:46;2.35;;;0.50;;
55031;SDS011;40928;51.076;7.950;2022-10-16T15:15:21;0.38;;;0.20;;
55031;SDS011;40928;51.076;7.950;2022-10-16T15:17:52;0.45;;;0.28;;
55031;SDS011;40928;51.076;7.950;2022-10-16T15:20:22;2.40;;;0.28;;
55031;SDS011;40928;51.076;7.950;2022-10-16T15:22:48;1.27;;;0.30;;
55031;SDS011;40928;51.076;7.950;2022-10-16T15:25:25;3.22;;;0.40;;
55031;SDS011;40928;51.076;7.950;2022-10-16T15:27:52;0.93;;;0.45;;
55031;SDS011;40928;51.076;7.950;2022-10-16T15:30:18;3.38;;;0.30;;
55031;SDS011;40928;51.076;7.950;2022-10-16T15:32:43;0.60;;;0.20;;
55031;SDS011;40928;51.076;7.950;2022-10-16T15:35:09;1.58;;;0.40;;
55031;SDS011;40928;51.076;7.950;2022-10-16T15:37:34;0.20;;;0.10;;
55031;SDS011;40928;51.076;7.950;2022-10-16T15:40:00;0.73;;;0.20;;
55031;SDS011;40928;51.076;7.950;2022-10-16T15:42:25;4.68;;;0.40;;
55031;SDS011;40928;51.076;7.950;2022-10-16T15:44:51;2.40;;;0.40;;
55031;SDS011;40928;51.076;7.950;2022-10-16T15:47:17;4.97;;;3.05;;
55031;SDS011;40928;51.076;7.950;2022-10-16T15:49:42;6.80;;;3.65;;
55031;SDS011;40928;51.076;7.950;2022-10-16T15:52:08;3.95;;;2.10;;
55031;SDS011;40928;51.076;7.950;2022-10-16T15:54:34;1.17;;;0.63;;
55031;SDS011;40928;51.076;7.950;2022-10-16T15:57:00;2.03;;;0.93;;
55031;SDS011;40928;51.076;7.950;2022-10-16T15:59:25;1.50;;;0.43;;
55031;SDS011;40928;51.076;7.950;2022-10-16T16:01:51;2.50;;;0.50;;
55031;SDS011;40928;51.076;7.950;2022-10-16T16:04:16;4.35;;;0.63;;
55031;SDS011;40928;51.076;7.950;2022-10-16T16:06:42;6.78;;;0.65;;
55031;SDS011;40928;51.076;7.950;2022-10-16T16:09:12;1.25;;;0.60;;
55031;SDS011;40928;51.076;7.950;2022-10-16T16:11:38;4.00;;;1.10;;
55031;SDS011;40928;51.076;7.950;2022-10-16T16:14:05;6.57;;;1.35;;
55031;SDS011;40928;51.076;7.950;2022-10-16T16:16:31;3.35;;;0.90;;
55031;SDS011;40928;51.076;7.950;2022-10-16T16:19:02;1.88;;;0.82;;
55031;SDS011;40928;51.076;7.950;2022-10-16T16:21:28;3.75;;;0.70;;
55031;SDS011;40928;51.076;7.950;2022-10-16T16:23:54;1.70;;;0.50;;
55031;SDS011;40928;51.076;7.950;2022-10-16T16:26:23;1.00;;;0.50;;
55031;SDS011;40928;51.076;7.950;2022-10-16T16:28:57;2.92;;;0.73;;
55031;SDS011;40928;51.076;7.950;2022-10-16T16:31:23;7.90;;;2.25;;
55031;SDS011;40928;51.076;7.950;2022-10-16T16:33:50;1.13;;;0.60;;
55031;SDS011;40928;51.076;7.950;2022-10-16T16:36:16;2.95;;;0.73;;
55031;SDS011;40928;51.076;7.950;2022-10-16T16:38:43;1.38;;;0.70;;
55031;SDS011;40928;51.076;7.950;2022-10-16T16:41:20;1.08;;;0.68;;
55031;SDS011;40928;51.076;7.950;2022-10-16T16:43:47;9.48;;;1.10;;
55031;SDS011;40928;51.076;7.950;2022-10-16T16:46:13;3.53;;;0.75;;
55031;SDS011;40928;51.076;7.950;2022-10-16T16:48:40;2.90;;;0.60;;
55031;SDS011;40928;51.076;7.950;2022-10-16T16:51:15;1.52;;;0.80;;
55031;SDS011;40928;51.076;7.950;2022-10-16T16:53:48;2.13;;;1.00;;
55031;SDS011;40928;51.076;7.950;2022-10-16T16:56:19;1.92;;;1.00;;
55031;SDS011;40928;51.076;7.950;2022-10-16T16:58:46;1.90;;;1.00;;
55031;SDS011;40928;51.076;7.950;2022-10-16T17:01:13;3.65;;;0.90;;
55031;SDS011;40928;51.076;7.950;2022-10-16T17:03:41;2.40;;;0.90;;
55031;SDS011;40928;51.076;7.950;2022-10-16T17:06:09;7.40;;;1.10;;
55031;SDS011;40928;51.076;7.950;2022-10-16T17:08:37;1.80;;;0.68;;
55031;SDS011;40928;51.076;7.950;2022-10-16T17:11:03;3.53;;;0.90;;